createdAt,value
2023-01-02T00:01:37.420Z,3.88
2023-01-02T00:06:36.825Z,2.30
2023-01-02T00:09:06.396Z,10.48
2023-01-02T00:11:38.296Z,3.72
2023-01-02T00:14:06.141Z,6.65
2023-01-02T00:16:33.923Z,4.97
2023-01-02T00:19:01.801Z,9.07
2023-01-02T00:21:29.579Z,3.05
2023-01-02T00:23:59.807Z,2.78
2023-01-02T00:26:27.955Z,5.68
2023-01-02T00:28:55.765Z,3.70
2023-01-02T00:31:23.921Z,1.20
2023-01-02T00:33:51.803Z,5.95
2023-01-02T00:36:19.581Z,0.98
2023-01-02T00:38:49.746Z,4.03
2023-01-02T00:43:45.407Z,4.47
2023-01-02T00:46:13.382Z,3.40
2023-01-02T00:48:41.531Z,2.15
2023-01-02T00:51:09.783Z,2.83
2023-01-02T00:53:37.507Z,3.17
2023-01-02T00:56:05.459Z,1.90
2023-01-02T00:58:33.300Z,4.72
2023-01-02T01:01:01.129Z,6.68
2023-01-02T01:03:31.592Z,4.10
2023-01-02T01:05:59.511Z,5.13
2023-01-02T01:08:27.393Z,1.35
2023-01-02T01:10:55.124Z,2.17
2023-01-02T01:13:23.499Z,3.97
2023-01-02T01:15:51.476Z,3.97
2023-01-02T01:18:19.549Z,0.98
2023-01-02T01:20:47.286Z,2.05
2023-01-02T01:23:17.459Z,3.05
2023-01-02T01:28:17.746Z,2.80
2023-01-02T01:33:13.274Z,1.65
2023-01-02T01:35:43.739Z,5.20
2023-01-02T01:38:11.608Z,1.20
2023-01-02T01:40:39.833Z,1.90
2023-01-02T01:43:14.354Z,2.78
2023-01-02T01:45:45.468Z,4.10
2023-01-02T01:48:17.539Z,2.83
2023-01-02T01:50:45.492Z,2.63
2023-01-02T01:53:18.050Z,2.00
2023-01-02T01:55:48.685Z,2.83
2023-01-02T01:58:23.445Z,1.95
2023-01-02T02:00:52.426Z,1.85
2023-01-02T02:03:22.368Z,3.70
2023-01-02T02:05:52.773Z,4.40
2023-01-02T02:08:22.713Z,2.90
2023-01-02T02:10:52.020Z,12.02
2023-01-02T02:13:20.268Z,3.67
2023-01-02T02:15:55.117Z,1.15
2023-01-02T02:18:59.968Z,4.03
2023-01-02T02:21:56.543Z,2.72
2023-01-02T02:24:24.293Z,1.88
2023-01-02T02:26:58.191Z,3.05
2023-01-02T02:29:44.534Z,3.20
2023-01-02T02:32:21.117Z,3.72
2023-01-02T02:34:48.830Z,3.78
2023-01-02T02:37:26.248Z,2.25
2023-01-02T02:39:53.868Z,5.15
2023-01-02T02:42:27.672Z,2.55
2023-01-02T02:45:34.731Z,2.42
2023-01-02T02:48:21.098Z,3.38
2023-01-02T02:51:01.944Z,1.90
2023-01-02T02:53:43.765Z,1.95
2023-01-02T02:56:14.354Z,2.25
2023-01-02T02:58:42.748Z,3.10
2023-01-02T03:01:17.702Z,3.22
2023-01-02T03:03:45.664Z,3.33
2023-01-02T03:06:19.346Z,2.65
2023-01-02T03:08:56.224Z,2.80
2023-01-02T03:11:32.975Z,2.15
2023-01-02T03:14:24.376Z,2.75
2023-01-02T03:17:01.510Z,5.38
2023-01-02T03:19:33.151Z,9.43
2023-01-02T03:22:13.322Z,3.67
2023-01-02T03:24:42.350Z,2.83
2023-01-02T03:27:16.310Z,3.40
2023-01-02T03:29:48.014Z,2.90
2023-01-02T03:32:21.654Z,3.05
2023-01-02T03:34:49.947Z,4.38
2023-01-02T03:37:20.127Z,3.38
2023-01-02T03:42:36.137Z,2.63
2023-01-02T03:45:26.937Z,2.33
2023-01-02T03:48:03.881Z,4.78
2023-01-02T03:50:37.849Z,5.53
2023-01-02T03:53:05.746Z,1.95
2023-01-02T03:55:37.233Z,1.73
2023-01-02T03:58:10.987Z,2.88
2023-01-02T04:00:44.481Z,2.70
2023-01-02T04:03:21.835Z,2.83
2023-01-02T04:06:12.921Z,2.60
2023-01-02T04:08:55.618Z,2.38
2023-01-02T04:11:24.333Z,6.15
2023-01-02T04:13:59.532Z,2.58
2023-01-02T04:16:30.594Z,2.10
2023-01-02T04:19:27.315Z,5.93
2023-01-02T04:22:01.756Z,4.20
2023-01-02T04:24:32.101Z,1.80
2023-01-02T04:27:22.558Z,3.80
2023-01-02T04:29:50.446Z,4.03
2023-01-02T04:32:20.433Z,3.03
2023-01-02T04:34:49.412Z,1.40
2023-01-02T04:37:38.599Z,3.35
2023-01-02T04:40:16.008Z,2.35
2023-01-02T04:42:43.786Z,2.35
2023-01-02T04:45:11.856Z,2.83
2023-01-02T04:47:39.640Z,2.95
2023-01-02T04:50:10.679Z,2.13
2023-01-02T04:52:38.551Z,5.13
2023-01-02T04:55:10.117Z,2.42
2023-01-02T04:57:38.607Z,6.97
2023-01-02T05:00:09.550Z,1.60
2023-01-02T05:02:38.733Z,4.15
2023-01-02T05:05:07.172Z,3.70
2023-01-02T05:07:35.385Z,1.27
2023-01-02T05:10:03.770Z,2.70
2023-01-02T05:12:34.437Z,4.35
2023-01-02T05:15:02.285Z,2.97
2023-01-02T05:17:30.117Z,3.00
2023-01-02T05:20:01.065Z,2.53
2023-01-02T05:22:47.376Z,2.33
2023-01-02T05:25:15.171Z,2.50
2023-01-02T05:27:42.923Z,4.43
2023-01-02T05:30:11.268Z,3.88
2023-01-02T05:32:39.126Z,23.92
2023-01-02T05:35:07.119Z,2.03
2023-01-02T05:37:34.870Z,9.48
2023-01-02T05:40:05.160Z,8.35
2023-01-02T05:42:36.100Z,2.85
2023-01-02T05:45:03.997Z,7.07
2023-01-02T05:47:31.898Z,10.20
2023-01-02T05:49:59.747Z,2.72
2023-01-02T05:52:27.453Z,10.55
2023-01-02T05:54:55.317Z,12.63
2023-01-02T05:57:22.998Z,4.50
2023-01-02T05:59:50.810Z,4.68
2023-01-02T06:02:18.583Z,12.93
2023-01-02T06:04:46.387Z,9.98
2023-01-02T06:07:14.277Z,4.82
2023-01-02T06:09:42.051Z,11.95
2023-01-02T06:12:10.392Z,9.65
2023-01-02T06:14:38.261Z,22.08
2023-01-02T06:17:06.414Z,10.40
2023-01-02T06:19:34.325Z,26.13
2023-01-02T06:22:02.153Z,6.47
2023-01-02T06:24:30.125Z,9.13
2023-01-02T06:26:58.086Z,10.73
2023-01-02T06:29:25.877Z,38.25
2023-01-02T06:31:54.404Z,25.92
2023-01-02T06:34:22.334Z,11.07
2023-01-02T06:36:50.176Z,4.82
2023-01-02T06:39:18.087Z,19.70
2023-01-02T06:41:45.923Z,11.38
2023-01-02T06:44:14.336Z,29.77
2023-01-02T06:46:42.367Z,40.60
2023-01-02T06:49:10.095Z,13.90
2023-01-02T06:51:38.037Z,18.00
2023-01-02T06:54:05.835Z,25.33
2023-01-02T06:56:33.599Z,52.42
2023-01-02T06:59:03.717Z,37.72
2023-01-02T07:01:31.758Z,43.40
2023-01-02T07:03:59.721Z,10.57
2023-01-02T07:06:28.008Z,13.30
2023-01-02T07:08:55.917Z,22.20
2023-01-02T07:11:26.131Z,44.83
2023-01-02T07:16:25.805Z,23.13
2023-01-02T07:18:54.554Z,11.15
2023-01-02T07:21:22.635Z,121.13
2023-01-02T07:23:50.536Z,35.88
2023-01-02T07:26:18.437Z,22.95
2023-01-02T07:28:47.326Z,31.92
2023-01-02T07:31:17.982Z,20.20
2023-01-02T07:33:45.901Z,11.85
2023-01-02T07:36:17.980Z,11.15
2023-01-02T07:38:46.125Z,33.50
2023-01-02T07:41:18.134Z,21.15
2023-01-02T07:43:46.569Z,85.05
2023-01-02T07:46:15.653Z,39.75
2023-01-02T07:48:44.171Z,40.20
2023-01-02T07:51:12.483Z,31.17
2023-01-02T07:53:41.876Z,20.95
2023-01-02T07:56:09.917Z,19.73
2023-01-02T07:58:38.346Z,18.60
2023-01-02T08:01:11.270Z,13.45
2023-01-02T08:03:39.538Z,15.93
2023-01-02T08:06:08.141Z,8.70
2023-01-02T08:08:38.689Z,45.10
2023-01-02T08:11:10.671Z,45.05
2023-01-02T08:13:39.137Z,45.80
2023-01-02T08:16:11.342Z,26.73
2023-01-02T08:18:39.001Z,16.65
2023-01-02T08:21:07.693Z,23.98
2023-01-02T08:23:35.799Z,22.42
2023-01-02T08:26:05.957Z,49.50
2023-01-02T08:28:35.194Z,31.35
2023-01-02T08:31:02.978Z,46.92
2023-01-02T08:33:30.945Z,20.85
2023-01-02T08:35:58.797Z,15.93
2023-01-02T08:38:26.573Z,16.88
2023-01-02T08:40:54.432Z,13.43
2023-01-02T08:43:22.242Z,16.17
2023-01-02T08:45:52.768Z,37.63
2023-01-02T08:48:21.666Z,20.80
2023-01-02T08:50:51.066Z,28.33
2023-01-02T08:53:18.945Z,16.50
2023-01-02T08:55:46.707Z,14.20
2023-01-02T08:58:23.965Z,22.30
2023-01-02T09:00:53.351Z,20.92
2023-01-02T09:03:21.158Z,26.52
2023-01-02T09:05:49.093Z,21.15
2023-01-02T09:08:17.034Z,9.95
2023-01-02T09:10:45.339Z,17.27
2023-01-02T09:13:14.923Z,15.77
2023-01-02T09:15:46.073Z,26.42
2023-01-02T09:18:15.713Z,51.20
2023-01-02T09:20:43.814Z,14.82
2023-01-02T09:23:11.732Z,17.02
2023-01-02T09:25:39.662Z,10.75
2023-01-02T09:28:07.446Z,23.98
2023-01-02T09:30:35.317Z,22.25
2023-01-02T09:33:03.205Z,59.65
2023-01-02T09:35:30.864Z,37.25
2023-01-02T09:37:58.638Z,23.13
2023-01-02T09:40:26.565Z,47.95
2023-01-02T09:42:56.782Z,13.73
2023-01-02T09:47:54.875Z,24.20
2023-01-02T09:52:58.932Z,36.10
2023-01-02T09:55:29.770Z,19.65
2023-01-02T09:58:03.117Z,62.03
2023-01-02T10:00:35.708Z,19.35
2023-01-02T10:03:20.739Z,20.25
2023-01-02T10:06:07.884Z,20.98
2023-01-02T10:08:53.993Z,26.27
2023-01-02T10:11:27.928Z,16.15
2023-01-02T10:14:19.755Z,12.93
2023-01-02T10:16:50.287Z,14.70
2023-01-02T10:19:27.943Z,24.65
2023-01-02T10:21:58.702Z,22.98
2023-01-02T10:24:38.683Z,19.90
2023-01-02T10:27:07.205Z,25.90
2023-01-02T10:29:41.301Z,29.65
2023-01-02T10:32:14.294Z,19.25
2023-01-02T10:34:44.994Z,16.23
2023-01-02T10:37:17.094Z,37.85
2023-01-02T10:39:45.684Z,31.95
2023-01-02T10:42:14.354Z,18.90
2023-01-02T10:44:44.702Z,19.45
2023-01-02T10:47:32.342Z,15.98
2023-01-02T10:50:00.663Z,40.67
2023-01-02T10:52:38.797Z,28.48
2023-01-02T10:55:06.876Z,46.40
2023-01-02T10:57:51.508Z,25.55
2023-01-02T11:00:25.707Z,21.33
2023-01-02T11:05:31.808Z,30.65
2023-01-02T11:08:00.363Z,16.92
2023-01-02T11:10:34.341Z,29.67
2023-01-02T11:13:15.939Z,53.90
2023-01-02T11:16:05.281Z,60.63
2023-01-02T11:18:34.460Z,30.27
2023-01-02T11:21:05.608Z,27.77
2023-01-02T11:23:48.542Z,34.33
2023-01-02T11:26:25.439Z,29.15
2023-01-02T11:28:54.647Z,57.30
2023-01-02T11:31:22.976Z,51.28
2023-01-02T11:33:51.067Z,24.48
2023-01-02T11:36:20.381Z,23.13
2023-01-02T11:39:02.069Z,28.40
2023-01-02T11:41:52.515Z,76.88
2023-01-02T11:44:29.296Z,50.17
2023-01-02T11:46:57.638Z,19.95
2023-01-02T11:49:27.813Z,55.88
2023-01-02T11:51:58.672Z,29.98
2023-01-02T11:54:53.186Z,30.55
2023-01-02T11:57:32.135Z,25.25
2023-01-02T12:00:02.510Z,35.50
2023-01-02T12:02:39.894Z,30.35
2023-01-02T12:05:26.154Z,39.83
2023-01-02T12:08:01.423Z,37.88
2023-01-02T12:11:27.308Z,33.83
2023-01-02T12:14:50.767Z,77.28
2023-01-02T12:17:21.986Z,66.65
2023-01-02T12:20:25.425Z,36.20
2023-01-02T12:23:02.301Z,69.57
2023-01-02T12:25:39.231Z,36.55
2023-01-02T12:28:16.087Z,64.75
2023-01-02T12:31:16.712Z,49.15
2023-01-02T12:34:19.171Z,33.50
2023-01-02T12:37:09.859Z,24.58
2023-01-02T12:39:50.235Z,32.70
2023-01-02T12:42:43.283Z,17.30
2023-01-02T12:45:48.079Z,25.45
2023-01-02T12:48:56.987Z,25.10
2023-01-02T12:51:56.891Z,39.22
2023-01-02T12:54:30.160Z,29.90
2023-01-02T12:56:57.621Z,27.77
2023-01-02T12:59:47.100Z,33.22
2023-01-02T13:02:55.219Z,37.65
2023-01-02T13:05:31.177Z,34.47
2023-01-02T13:08:13.275Z,26.73
2023-01-02T13:10:41.556Z,37.08
2023-01-02T13:13:12.537Z,39.08
2023-01-02T13:15:45.660Z,33.00
2023-01-02T13:18:22.285Z,67.82
2023-01-02T13:21:01.573Z,27.00
2023-01-02T13:23:35.899Z,30.83
2023-01-02T13:26:15.815Z,25.27
2023-01-02T13:29:06.865Z,18.23
2023-01-02T13:31:48.384Z,29.83
2023-01-02T13:34:26.861Z,40.22
2023-01-02T13:37:10.503Z,16.88
2023-01-02T13:39:49.181Z,43.22
2023-01-02T13:42:45.342Z,16.50
2023-01-02T13:45:25.149Z,29.77
2023-01-02T13:47:56.762Z,30.17
2023-01-02T13:50:31.500Z,41.20
2023-01-02T13:53:10.975Z,19.83
2023-01-02T13:55:41.447Z,47.45
2023-01-02T13:58:18.531Z,32.75
2023-01-02T14:00:56.620Z,47.65
2023-01-02T14:03:24.468Z,39.75
2023-01-02T14:05:59.036Z,31.38
2023-01-02T14:08:35.611Z,27.08
2023-01-02T14:11:08.052Z,25.83
2023-01-02T14:13:39.010Z,29.50
2023-01-02T14:17:00.415Z,25.17
2023-01-02T14:19:28.235Z,24.77
2023-01-02T14:21:59.003Z,21.90
2023-01-02T14:24:40.229Z,25.08
2023-01-02T14:27:18.482Z,17.90
2023-01-02T14:29:53.340Z,30.55
2023-01-02T14:32:43.866Z,38.83
2023-01-02T14:35:14.344Z,18.13
2023-01-02T14:37:48.538Z,23.35
2023-01-02T14:40:23.432Z,34.50
2023-01-02T14:43:23.081Z,25.27
2023-01-02T14:46:17.105Z,23.80
2023-01-02T14:48:58.510Z,9.90
2023-01-02T14:51:37.513Z,23.25
2023-01-02T14:54:09.849Z,17.80
2023-01-02T14:56:40.896Z,14.30
2023-01-02T14:59:19.782Z,18.23
2023-01-02T15:01:55.267Z,18.33
2023-01-02T15:04:39.175Z,24.88
2023-01-02T15:07:14.981Z,12.02
2023-01-02T15:09:53.986Z,22.02
2023-01-02T15:12:43.726Z,21.60
2023-01-02T15:15:16.643Z,15.55
2023-01-02T15:17:49.336Z,16.33
2023-01-02T15:20:25.989Z,18.77
2023-01-02T15:22:54.529Z,63.28
2023-01-02T15:25:38.274Z,20.13
2023-01-02T15:28:07.674Z,21.00
2023-01-02T15:30:40.298Z,10.05
2023-01-02T15:33:25.943Z,21.75
2023-01-02T15:36:06.504Z,55.22
2023-01-02T15:38:34.746Z,39.13
2023-01-02T15:41:03.013Z,26.10
2023-01-02T15:43:52.899Z,17.30
2023-01-02T15:46:21.396Z,20.92
2023-01-02T15:48:49.696Z,3.10
2023-01-02T15:51:40.234Z,9.82
2023-01-02T15:54:13.479Z,4.20
2023-01-02T15:56:41.654Z,10.02
2023-01-02T15:59:30.607Z,14.95
2023-01-02T16:01:58.682Z,6.28
2023-01-02T16:04:29.169Z,29.88
2023-01-02T16:07:00.350Z,9.82
2023-01-02T16:09:33.714Z,21.25
2023-01-02T16:12:03.389Z,6.85
2023-01-02T16:14:42.161Z,45.35
2023-01-02T16:17:26.006Z,10.20
2023-01-02T16:19:58.950Z,78.53
2023-01-02T16:22:32.290Z,18.67
2023-01-02T16:25:18.859Z,28.35
2023-01-02T16:27:57.018Z,26.60
2023-01-02T16:30:41.195Z,13.38
2023-01-02T16:33:25.091Z,42.28
2023-01-02T16:36:01.176Z,45.92
2023-01-02T16:41:05.181Z,17.25
2023-01-02T16:43:41.018Z,9.85
2023-01-02T16:46:14.813Z,7.70
2023-01-02T16:48:43.838Z,26.13
2023-01-02T16:51:11.692Z,8.88
2023-01-02T16:53:43.569Z,6.75
2023-01-02T16:56:12.484Z,10.18
2023-01-02T16:58:40.292Z,27.17
2023-01-02T17:01:12.190Z,3.60
2023-01-02T17:03:39.983Z,10.00
2023-01-02T17:06:11.828Z,7.35
2023-01-02T17:08:40.312Z,9.73
2023-01-02T17:11:08.993Z,6.10
2023-01-02T17:13:36.831Z,17.98
2023-01-02T17:16:07.559Z,12.38
2023-01-02T17:18:37.717Z,4.80
2023-01-02T17:23:34.003Z,5.15
2023-01-02T17:26:02.182Z,6.75
2023-01-02T17:28:30.582Z,8.82
2023-01-02T17:30:58.363Z,13.27
2023-01-02T17:33:26.302Z,3.83
2023-01-02T17:35:54.217Z,5.13
2023-01-02T17:38:22.121Z,5.35
2023-01-02T17:40:49.889Z,3.22
2023-01-02T17:43:17.667Z,9.48
2023-01-02T17:45:45.654Z,5.50
2023-01-02T17:48:17.257Z,2.58
2023-01-02T17:50:51.634Z,11.40
2023-01-02T17:53:20.702Z,3.50
2023-01-02T17:56:20.501Z,4.75
2023-01-02T17:58:44.610Z,3.50
2023-01-02T18:01:17.562Z,3.13
2023-01-02T18:03:45.721Z,3.47
2023-01-02T18:06:13.535Z,3.75
2023-01-02T18:08:41.640Z,2.15
2023-01-02T18:11:12.772Z,3.47
2023-01-02T18:13:51.665Z,3.97
2023-01-02T18:16:24.350Z,6.65
2023-01-02T18:18:55.598Z,3.97
2023-01-02T18:21:26.080Z,14.82
2023-01-02T18:23:58.698Z,2.65
2023-01-02T18:26:26.551Z,4.65
2023-01-02T18:29:09.768Z,3.20
2023-01-02T18:31:44.870Z,3.10
2023-01-02T18:34:46.641Z,5.25
2023-01-02T18:37:38.047Z,3.70
2023-01-02T18:40:15.288Z,4.30
2023-01-02T18:42:45.481Z,4.32
2023-01-02T18:45:20.716Z,1.65
2023-01-02T18:47:53.756Z,3.78
2023-01-02T18:50:35.589Z,3.50
2023-01-02T18:53:16.959Z,3.47
2023-01-02T18:55:45.029Z,6.72
2023-01-02T18:58:18.492Z,7.10
2023-01-02T19:00:47.178Z,4.18
2023-01-02T19:03:25.724Z,5.18
2023-01-02T19:05:53.540Z,6.13
2023-01-02T19:08:25.354Z,2.97
2023-01-02T19:10:56.499Z,3.25
2023-01-02T19:13:25.228Z,4.32
2023-01-02T19:15:59.356Z,3.22
2023-01-02T19:18:30.143Z,4.00
2023-01-02T19:21:26.895Z,3.97
2023-01-02T19:24:00.611Z,1.80
2023-01-02T19:26:37.786Z,6.80
2023-01-02T19:29:22.923Z,2.15
2023-01-02T19:32:15.081Z,3.42
2023-01-02T19:34:52.958Z,4.80
2023-01-02T19:37:40.943Z,5.70
2023-01-02T19:40:19.393Z,3.70
2023-01-02T19:42:48.486Z,4.35
2023-01-02T19:45:21.983Z,4.18
2023-01-02T19:47:50.265Z,5.57
2023-01-02T19:50:20.363Z,3.65
2023-01-02T19:52:48.291Z,2.45
2023-01-02T19:55:17.923Z,3.40
2023-01-02T19:57:46.485Z,2.63
2023-01-02T20:00:16.463Z,6.25
2023-01-02T20:02:53.667Z,3.28
2023-01-02T20:05:22.798Z,4.47
2023-01-02T20:07:51.636Z,2.30
2023-01-02T20:10:19.449Z,3.42
2023-01-02T20:12:47.629Z,2.53
2023-01-02T20:15:17.859Z,3.80
2023-01-02T20:17:46.157Z,2.63
2023-01-02T20:20:16.591Z,4.53
2023-01-02T20:22:44.497Z,5.60
2023-01-02T20:25:16.019Z,2.47
2023-01-02T20:27:43.691Z,6.22
2023-01-02T20:30:12.214Z,2.80
2023-01-02T20:32:40.976Z,4.90
2023-01-02T20:35:08.994Z,4.47
2023-01-02T20:37:36.772Z,4.35
2023-01-02T20:40:05.041Z,2.85
2023-01-02T20:42:33.110Z,4.38
2023-01-02T20:45:00.578Z,3.70
2023-01-02T20:47:28.297Z,10.02
2023-01-02T20:49:56.052Z,3.67
2023-01-02T20:52:23.820Z,5.03
2023-01-02T20:54:51.680Z,2.72
2023-01-02T20:57:19.445Z,4.18
2023-01-02T20:59:47.144Z,3.13
2023-01-02T21:02:14.968Z,3.22
2023-01-02T21:04:42.730Z,3.50
2023-01-02T21:07:10.648Z,3.63
2023-01-02T21:09:38.413Z,5.40
2023-01-02T21:12:26.788Z,3.45
2023-01-02T21:14:54.747Z,4.35
2023-01-02T21:17:22.474Z,4.05
2023-01-02T21:19:50.335Z,4.13
2023-01-02T21:22:19.652Z,4.30
2023-01-02T21:24:47.693Z,4.05
2023-01-02T21:27:15.478Z,3.50
2023-01-02T21:29:45.681Z,5.70
2023-01-02T21:34:41.282Z,1.30
2023-01-02T21:37:08.882Z,3.63
2023-01-02T21:39:36.788Z,7.90
2023-01-02T21:42:16.197Z,2.95
2023-01-02T21:44:47.906Z,2.75
2023-01-02T21:47:17.001Z,4.43
2023-01-02T21:49:48.213Z,6.07
2023-01-02T21:52:16.113Z,5.45
2023-01-02T21:54:43.738Z,9.52
2023-01-02T21:57:11.851Z,2.88
2023-01-02T21:59:39.557Z,2.53
2023-01-02T22:02:10.445Z,5.55
2023-01-02T22:04:41.222Z,7.30
2023-01-02T22:09:56.862Z,3.20
2023-01-02T22:12:26.335Z,3.60
2023-01-02T22:14:54.097Z,2.92
2023-01-02T22:17:21.842Z,4.90
2023-01-02T22:19:49.711Z,3.00
2023-01-02T22:22:20.383Z,3.58
2023-01-02T22:24:48.861Z,4.03
2023-01-02T22:27:19.554Z,4.28
2023-01-02T22:30:20.613Z,3.97
2023-01-02T22:32:37.265Z,2.63
2023-01-02T22:35:06.001Z,4.10
2023-01-02T22:37:34.006Z,3.53
2023-01-02T22:40:02.193Z,4.10
2023-01-02T22:43:07.422Z,5.53
2023-01-02T22:45:46.577Z,3.22
2023-01-02T22:48:37.983Z,2.20
2023-01-02T22:51:08.870Z,5.13
2023-01-02T22:53:40.977Z,3.13
2023-01-02T22:56:18.350Z,5.30
2023-01-02T22:58:48.627Z,5.03
2023-01-02T23:01:25.937Z,3.13
2023-01-02T23:03:55.975Z,4.07
2023-01-02T23:06:26.804Z,1.83
2023-01-02T23:08:54.514Z,3.13
2023-01-02T23:11:23.260Z,2.47
2023-01-02T23:13:56.331Z,2.60
2023-01-02T23:16:43.287Z,2.40
2023-01-02T23:19:19.322Z,4.68
2023-01-02T23:21:46.998Z,3.65
2023-01-02T23:24:16.783Z,4.32
2023-01-02T23:26:50.101Z,6.25
2023-01-02T23:29:19.194Z,3.75
2023-01-02T23:31:50.337Z,5.38
2023-01-02T23:34:23.490Z,2.85
2023-01-02T23:36:55.647Z,3.88
2023-01-02T23:39:26.064Z,14.05
2023-01-02T23:41:54.022Z,3.60
2023-01-02T23:44:22.567Z,4.97
2023-01-02T23:46:50.794Z,4.15
2023-01-02T23:49:18.890Z,4.00
2023-01-02T23:51:47.180Z,4.15
2023-01-02T23:54:16.421Z,4.78
2023-01-02T23:56:46.441Z,2.97
2023-01-02T23:59:17.262Z,3.58
